sensor_id;sensor_type;location;lat;lon;timestamp;temperature;humidity
22379;DHT22;11357;49.990;7.370;2024-03-02T00:00:05;8.50;89.30
22379;DHT22;11357;49.990;7.370;2024-03-02T00:02:44;8.50;89.20
22379;DHT22;11357;49.990;7.370;2024-03-02T00:05:14;8.50;89.30
22379;DHT22;11357;49.990;7.370;2024-03-02T00:07:44;8.60;89.20
22379;DHT22;11357;49.990;7.370;2024-03-02T00:10:14;8.60;89.10
22379;DHT22;11357;49.990;7.370;2024-03-02T00:12:42;8.50;89.10
22379;DHT22;11357;49.990;7.370;2024-03-02T00:15:46;8.50;89.10
22379;DHT22;11357;49.990;7.370;2024-03-02T00:18:16;8.50;89.40
22379;DHT22;11357;49.990;7.370;2024-03-02T00:20:43;8.50;89.20
22379;DHT22;11357;49.990;7.370;2024-03-02T00:23:10;8.50;89.20
22379;DHT22;11357;49.990;7.370;2024-03-02T00:25:41;8.40;89.20
22379;DHT22;11357;49.990;7.370;2024-03-02T00:28:25;8.40;89.30
22379;DHT22;11357;49.990;7.370;2024-03-02T00:30:56;8.40;89.40
22379;DHT22;11357;49.990;7.370;2024-03-02T00:33:23;8.50;89.30
22379;DHT22;11357;49.990;7.370;2024-03-02T00:35:49;8.50;89.20
22379;DHT22;11357;49.990;7.370;2024-03-02T00:38:15;8.50;89.10
22379;DHT22;11357;49.990;7.370;2024-03-02T00:40:42;8.50;89.00
22379;DHT22;11357;49.990;7.370;2024-03-02T00:43:44;8.50;89.00
22379;DHT22;11357;49.990;7.370;2024-03-02T00:46:12;8.40;89.10
22379;DHT22;11357;49.990;7.370;2024-03-02T00:48:39;8.40;89.00
22379;DHT22;11357;49.990;7.370;2024-03-02T00:51:05;8.40;89.00
22379;DHT22;11357;49.990;7.370;2024-03-02T00:53:31;8.30;88.90
22379;DHT22;11357;49.990;7.370;2024-03-02T00:56:01;8.30;88.90
22379;DHT22;11357;49.990;7.370;2024-03-02T00:58:27;8.30;88.90
22379;DHT22;11357;49.990;7.370;2024-03-02T01:00:53;8.20;88.90
22379;DHT22;11357;49.990;7.370;2024-03-02T01:03:18;8.20;88.90
22379;DHT22;11357;49.990;7.370;2024-03-02T01:05:45;8.20;88.90
22379;DHT22;11357;49.990;7.370;2024-03-02T01:08:11;8.10;88.80
22379;DHT22;11357;49.990;7.370;2024-03-02T01:10:36;8.00;88.90
22379;DHT22;11357;49.990;7.370;2024-03-02T01:13:02;8.00;88.90
22379;DHT22;11357;49.990;7.370;2024-03-02T01:15:28;7.90;88.90
22379;DHT22;11357;49.990;7.370;2024-03-02T01:17:54;7.80;89.00
22379;DHT22;11357;49.990;7.370;2024-03-02T01:20:19;7.80;89.10
22379;DHT22;11357;49.990;7.370;2024-03-02T01:22:45;7.80;89.10
22379;DHT22;11357;49.990;7.370;2024-03-02T01:25:11;7.80;89.10
22379;DHT22;11357;49.990;7.370;2024-03-02T01:27:36;7.80;89.10
22379;DHT22;11357;49.990;7.370;2024-03-02T04:44:23;8.20;90.60
22379;DHT22;11357;49.990;7.370;2024-03-02T04:46:48;8.20;90.60
22379;DHT22;11357;49.990;7.370;2024-03-02T04:54:45;8.40;90.40
22379;DHT22;11357;49.990;7.370;2024-03-02T04:57:30;8.40;90.40
22379;DHT22;11357;49.990;7.370;2024-03-02T05:10:22;8.50;90.30
22379;DHT22;11357;49.990;7.370;2024-03-02T05:12:48;8.60;90.40
22379;DHT22;11357;49.990;7.370;2024-03-02T05:15:22;8.60;90.40
22379;DHT22;11357;49.990;7.370;2024-03-02T05:17:48;8.60;90.30
22379;DHT22;11357;49.990;7.370;2024-03-02T06:43:51;8.60;89.90
22379;DHT22;11357;49.990;7.370;2024-03-02T06:46:25;8.50;89.90
22379;DHT22;11357;49.990;7.370;2024-03-02T06:48:50;8.50;90.00
22379;DHT22;11357;49.990;7.370;2024-03-02T06:51:16;8.60;90.00
22379;DHT22;11357;49.990;7.370;2024-03-02T06:53:41;8.50;90.00
22379;DHT22;11357;49.990;7.370;2024-03-02T06:56:07;8.60;90.00
22379;DHT22;11357;49.990;7.370;2024-03-02T06:58:33;8.60;90.00
22379;DHT22;11357;49.990;7.370;2024-03-02T07:00:59;8.60;90.00
22379;DHT22;11357;49.990;7.370;2024-03-02T07:03:26;8.60;90.00
22379;DHT22;11357;49.990;7.370;2024-03-02T07:05:51;8.60;90.00
22379;DHT22;11357;49.990;7.370;2024-03-02T07:08:17;8.60;90.00
22379;DHT22;11357;49.990;7.370;2024-03-02T07:10:43;8.70;90.10
22379;DHT22;11357;49.990;7.370;2024-03-02T07:13:08;8.70;90.00
22379;DHT22;11357;49.990;7.370;2024-03-02T07:15:34;8.70;90.00
22379;DHT22;11357;49.990;7.370;2024-03-02T07:18:15;8.70;90.00
22379;DHT22;11357;49.990;7.370;2024-03-02T07:20:41;8.70;90.00
22379;DHT22;11357;49.990;7.370;2024-03-02T07:23:06;8.70;90.00
22379;DHT22;11357;49.990;7.370;2024-03-02T07:25:32;8.70;90.10
22379;DHT22;11357;49.990;7.370;2024-03-02T07:27:58;8.80;90.10
22379;DHT22;11357;49.990;7.370;2024-03-02T07:52:25;9.70;89.30
22379;DHT22;11357;49.990;7.370;2024-03-02T07:54:51;9.90;89.00
22379;DHT22;11357;49.990;7.370;2024-03-02T07:57:17;10.00;88.90
22379;DHT22;11357;49.990;7.370;2024-03-02T08:05:39;10.20;88.60
22379;DHT22;11357;49.990;7.370;2024-03-02T08:08:05;10.30;88.50
22379;DHT22;11357;49.990;7.370;2024-03-02T08:23:22;11.60;86.50
22379;DHT22;11357;49.990;7.370;2024-03-02T08:25:48;11.90;86.00
22379;DHT22;11357;49.990;7.370;2024-03-02T08:28:13;12.10;85.70
22379;DHT22;11357;49.990;7.370;2024-03-02T14:38:07;16.90;68.50
22379;DHT22;11357;49.990;7.370;2024-03-02T14:40:33;16.80;68.50
22379;DHT22;11357;49.990;7.370;2024-03-02T14:42:58;16.70;68.50
22379;DHT22;11357;49.990;7.370;2024-03-02T14:45:24;16.70;68.70
22379;DHT22;11357;49.990;7.370;2024-03-02T14:47:51;16.60;68.80
22379;DHT22;11357;49.990;7.370;2024-03-02T14:50:17;16.50;69.00
22379;DHT22;11357;49.990;7.370;2024-03-02T14:52:44;16.50;69.20
22379;DHT22;11357;49.990;7.370;2024-03-02T14:55:11;16.40;69.30
22379;DHT22;11357;49.990;7.370;2024-03-02T14:57:36;16.40;69.60
22379;DHT22;11357;49.990;7.370;2024-03-02T15:00:02;16.30;69.90
22379;DHT22;11357;49.990;7.370;2024-03-02T15:02:29;16.40;70.20
22379;DHT22;11357;49.990;7.370;2024-03-02T15:04:55;16.40;70.00
22379;DHT22;11357;49.990;7.370;2024-03-02T15:07:20;16.40;69.90
22379;DHT22;11357;49.990;7.370;2024-03-02T15:09:46;16.40;70.00
22379;DHT22;11357;49.990;7.370;2024-03-02T15:12:12;16.30;70.10
22379;DHT22;11357;49.990;7.370;2024-03-02T15:14:40;16.20;70.20
22379;DHT22;11357;49.990;7.370;2024-03-02T15:17:15;16.20;70.30
22379;DHT22;11357;49.990;7.370;2024-03-02T15:19:42;16.10;70.40
22379;DHT22;11357;49.990;7.370;2024-03-02T15:22:08;16.20;70.50
22379;DHT22;11357;49.990;7.370;2024-03-02T15:24:34;16.00;70.50
22379;DHT22;11357;49.990;7.370;2024-03-02T15:27:00;16.00;70.70
22379;DHT22;11357;49.990;7.370;2024-03-02T15:29:29;15.90;70.60
22379;DHT22;11357;49.990;7.370;2024-03-02T15:31:56;15.90;70.80
22379;DHT22;11357;49.990;7.370;2024-03-02T15:34:22;15.80;70.90
22379;DHT22;11357;49.990;7.370;2024-03-02T15:36:49;15.80;70.90
22379;DHT22;11357;49.990;7.370;2024-03-02T15:39:15;15.80;70.90
22379;DHT22;11357;49.990;7.370;2024-03-02T15:41:40;15.80;70.90
22379;DHT22;11357;49.990;7.370;2024-03-02T15:44:07;15.70;70.90
22379;DHT22;11357;49.990;7.370;2024-03-02T15:46:33;15.60;70.80
22379;DHT22;11357;49.990;7.370;2024-03-02T15:48:59;15.60;71.00
22379;DHT22;11357;49.990;7.370;2024-03-02T15:51:29;15.50;71.20
22379;DHT22;11357;49.990;7.370;2024-03-02T15:53:54;15.50;71.20
22379;DHT22;11357;49.990;7.370;2024-03-02T15:56:20;15.50;71.20
22379;DHT22;11357;49.990;7.370;2024-03-02T15:58:46;15.40;71.30
22379;DHT22;11357;49.990;7.370;2024-03-02T16:01:12;15.30;71.30
22379;DHT22;11357;49.990;7.370;2024-03-02T16:03:38;15.20;71.50
22379;DHT22;11357;49.990;7.370;2024-03-02T16:06:04;15.20;71.70
22379;DHT22;11357;49.990;7.370;2024-03-02T16:08:30;15.20;71.70
22379;DHT22;11357;49.990;7.370;2024-03-02T16:10:56;15.20;71.70
22379;DHT22;11357;49.990;7.370;2024-03-02T16:13:22;15.10;71.80
22379;DHT22;11357;49.990;7.370;2024-03-02T16:15:48;15.10;71.90
22379;DHT22;11357;49.990;7.370;2024-03-02T16:18:14;15.10;72.10
22379;DHT22;11357;49.990;7.370;2024-03-02T16:20:39;15.00;72.00
22379;DHT22;11357;49.990;7.370;2024-03-02T16:23:06;15.00;72.00
22379;DHT22;11357;49.990;7.370;2024-03-02T16:25:33;15.00;72.20
22379;DHT22;11357;49.990;7.370;2024-03-02T16:28:01;14.90;72.30
22379;DHT22;11357;49.990;7.370;2024-03-02T16:30:28;14.90;72.40
22379;DHT22;11357;49.990;7.370;2024-03-02T16:32:54;15.00;72.60
22379;DHT22;11357;49.990;7.370;2024-03-02T16:35:20;14.90;72.60
22379;DHT22;11357;49.990;7.370;2024-03-02T16:37:45;14.90;72.70
22379;DHT22;11357;49.990;7.370;2024-03-02T16:40:12;14.90;72.80
22379;DHT22;11357;49.990;7.370;2024-03-02T16:42:39;14.90;72.80
22379;DHT22;11357;49.990;7.370;2024-03-02T16:45:05;14.90;72.80
22379;DHT22;11357;49.990;7.370;2024-03-02T16:47:30;14.80;73.00
22379;DHT22;11357;49.990;7.370;2024-03-02T16:49:56;14.80;73.10
22379;DHT22;11357;49.990;7.370;2024-03-02T16:52:26;14.80;73.30
22379;DHT22;11357;49.990;7.370;2024-03-02T16:54:53;14.70;73.40
22379;DHT22;11357;49.990;7.370;2024-03-02T16:57:19;14.80;73.50
22379;DHT22;11357;49.990;7.370;2024-03-02T16:59:45;14.70;73.50
22379;DHT22;11357;49.990;7.370;2024-03-02T17:02:11;14.70;73.60
22379;DHT22;11357;49.990;7.370;2024-03-02T17:04:37;14.60;73.60
22379;DHT22;11357;49.990;7.370;2024-03-02T17:07:03;14.60;73.60
22379;DHT22;11357;49.990;7.370;2024-03-02T17:09:29;14.60;73.60
22379;DHT22;11357;49.990;7.370;2024-03-02T17:11:55;14.60;73.70
22379;DHT22;11357;49.990;7.370;2024-03-02T17:14:20;14.60;73.60
22379;DHT22;11357;49.990;7.370;2024-03-02T17:16:46;14.50;73.60
22379;DHT22;11357;49.990;7.370;2024-03-02T17:19:12;14.50;73.60
22379;DHT22;11357;49.990;7.370;2024-03-02T17:21:38;14.50;73.50
22379;DHT22;11357;49.990;7.370;2024-03-02T17:24:04;14.40;73.50
22379;DHT22;11357;49.990;7.370;2024-03-02T17:26:30;14.40;73.60
22379;DHT22;11357;49.990;7.370;2024-03-02T17:28:55;14.30;73.50
22379;DHT22;11357;49.990;7.370;2024-03-02T17:31:21;14.30;73.70
22379;DHT22;11357;49.990;7.370;2024-03-02T17:33:47;14.30;73.70
22379;DHT22;11357;49.990;7.370;2024-03-02T17:36:13;14.20;73.70
22379;DHT22;11357;49.990;7.370;2024-03-02T17:38:40;14.20;73.70
22379;DHT22;11357;49.990;7.370;2024-03-02T17:41:06;14.20;73.80
22379;DHT22;11357;49.990;7.370;2024-03-02T17:43:33;14.20;73.90
22379;DHT22;11357;49.990;7.370;2024-03-02T17:45:59;14.20;74.00
22379;DHT22;11357;49.990;7.370;2024-03-02T17:48:26;14.20;74.00
22379;DHT22;11357;49.990;7.370;2024-03-02T17:50:52;14.10;74.00
22379;DHT22;11357;49.990;7.370;2024-03-02T17:53:17;14.10;74.10
22379;DHT22;11357;49.990;7.370;2024-03-02T17:55:43;14.00;74.00
22379;DHT22;11357;49.990;7.370;2024-03-02T17:58:09;13.90;74.00
22379;DHT22;11357;49.990;7.370;2024-03-02T18:00:35;13.90;74.20
22379;DHT22;11357;49.990;7.370;2024-03-02T18:03:01;13.80;74.30
22379;DHT22;11357;49.990;7.370;2024-03-02T18:05:26;13.80;74.40
22379;DHT22;11357;49.990;7.370;2024-03-02T18:07:52;13.80;75.10
22379;DHT22;11357;49.990;7.370;2024-03-02T18:10:19;13.80;74.60
22379;DHT22;11357;49.990;7.370;2024-03-02T18:12:45;13.80;74.70
22379;DHT22;11357;49.990;7.370;2024-03-02T18:15:11;13.70;74.70
22379;DHT22;11357;49.990;7.370;2024-03-02T18:17:37;13.70;74.90
22379;DHT22;11357;49.990;7.370;2024-03-02T18:20:03;13.60;74.90
22379;DHT22;11357;49.990;7.370;2024-03-02T18:22:30;13.50;75.10
22379;DHT22;11357;49.990;7.370;2024-03-02T18:24:56;13.40;75.30
22379;DHT22;11357;49.990;7.370;2024-03-02T18:27:24;13.30;75.40
22379;DHT22;11357;49.990;7.370;2024-03-02T18:29:50;13.30;75.60
22379;DHT22;11357;49.990;7.370;2024-03-02T18:32:16;13.20;75.60
22379;DHT22;11357;49.990;7.370;2024-03-02T18:34:41;13.30;75.70
22379;DHT22;11357;49.990;7.370;2024-03-02T18:37:08;13.30;75.70
22379;DHT22;11357;49.990;7.370;2024-03-02T18:39:35;13.20;75.70
22379;DHT22;11357;49.990;7.370;2024-03-02T18:42:01;13.20;75.80
22379;DHT22;11357;49.990;7.370;2024-03-02T18:44:27;13.20;75.90
22379;DHT22;11357;49.990;7.370;2024-03-02T18:46:52;13.10;75.90
22379;DHT22;11357;49.990;7.370;2024-03-02T18:49:18;13.10;75.90
22379;DHT22;11357;49.990;7.370;2024-03-02T18:51:44;13.10;75.90
22379;DHT22;11357;49.990;7.370;2024-03-02T18:54:10;13.10;76.00
22379;DHT22;11357;49.990;7.370;2024-03-02T18:56:39;13.10;76.00
22379;DHT22;11357;49.990;7.370;2024-03-02T18:59:04;13.10;76.10
22379;DHT22;11357;49.990;7.370;2024-03-02T19:01:30;13.10;76.10
22379;DHT22;11357;49.990;7.370;2024-03-02T19:03:56;13.10;76.10
22379;DHT22;11357;49.990;7.370;2024-03-02T19:06:21;13.00;76.20
22379;DHT22;11357;49.990;7.370;2024-03-02T19:08:47;13.00;76.20
22379;DHT22;11357;49.990;7.370;2024-03-02T19:11:14;13.00;76.30
22379;DHT22;11357;49.990;7.370;2024-03-02T19:13:40;13.00;76.40
22379;DHT22;11357;49.990;7.370;2024-03-02T19:16:13;13.00;76.40
22379;DHT22;11357;49.990;7.370;2024-03-02T19:18:42;13.00;76.40
22379;DHT22;11357;49.990;7.370;2024-03-02T19:21:08;12.90;76.40
22379;DHT22;11357;49.990;7.370;2024-03-02T19:23:34;12.90;76.50
22379;DHT22;11357;49.990;7.370;2024-03-02T19:26:01;12.90;76.60
22379;DHT22;11357;49.990;7.370;2024-03-02T19:28:26;12.90;76.70
22379;DHT22;11357;49.990;7.370;2024-03-02T20:50:00;12.20;77.80
22379;DHT22;11357;49.990;7.370;2024-03-02T20:56:33;12.20;77.80
22379;DHT22;11357;49.990;7.370;2024-03-02T21:28:17;12.30;79.00
22379;DHT22;11357;49.990;7.370;2024-03-02T21:54:29;12.40;79.30
22379;DHT22;11357;49.990;7.370;2024-03-02T21:57:34;12.40;79.40
22379;DHT22;11357;49.990;7.370;2024-03-02T22:45:28;12.20;80.70
22379;DHT22;11357;49.990;7.370;2024-03-02T23:06:18;12.00;81.10
22379;DHT22;11357;49.990;7.370;2024-03-02T23:08:48;12.00;81.40
22379;DHT22;11357;49.990;7.370;2024-03-02T23:11:14;12.00;81.40
22379;DHT22;11357;49.990;7.370;2024-03-02T23:13:39;12.00;81.60
22379;DHT22;11357;49.990;7.370;2024-03-02T23:16:05;12.00;81.70
22379;DHT22;11357;49.990;7.370;2024-03-02T23:18:31;12.00;81.80
22379;DHT22;11357;49.990;7.370;2024-03-02T23:48:13;11.90;82.00
